PDL weather

João Paulo II Airport
Ponta Delgada, Autonomous Region of Azores, Portugal

Public forecast

Using degrees Celsius for public forecast. Weather courtesy of forecast.io.

METAR (pilot weather report)

Retrieved 2019/05/23 08:30 UTC (0 seconds ago):

LPPD 230830Z 12004KT 9999 FEW012 17/15 Q1024

TAF (pilot weather forecast)

Retrieved 2019/05/23 06:18 UTC (2 hours ago):

TAF LPPD 230500Z 2306/2406 VRB05KT 9999 FEW020 BECMG 2310/2312 14010KT BECMG 2315/2318 SCT025